createdAt,value
2019-01-03T00:02:45.020Z,3.90
2019-01-03T00:05:53.100Z,3.70
2019-01-03T00:08:41.067Z,3.33
2019-01-03T00:11:48.710Z,3.97
2019-01-03T00:14:54.926Z,3.70
2019-01-03T00:18:02.419Z,4.10
2019-01-03T00:20:59.935Z,4.28
2019-01-03T00:24:09.200Z,4.30
2019-01-03T00:27:10.100Z,4.30
2019-01-03T00:30:19.551Z,4.17
2019-01-03T00:33:20.263Z,5.03
2019-01-03T00:36:27.760Z,3.50
2019-01-03T00:39:30.393Z,3.73
2019-01-03T00:42:37.824Z,3.60
2019-01-03T00:45:42.877Z,4.03
2019-01-03T00:48:52.166Z,4.17
2019-01-03T00:51:50.032Z,4.03
2019-01-03T00:54:57.423Z,3.70
2019-01-03T00:57:57.754Z,4.40
2019-01-03T01:01:05.699Z,4.40
2019-01-03T01:04:08.547Z,4.47
2019-01-03T01:07:15.994Z,4.17
2019-01-03T01:10:23.357Z,4.77
2019-01-03T01:13:30.772Z,4.87
2019-01-03T01:16:26.412Z,4.65
2019-01-03T01:19:33.830Z,4.57
2019-01-03T01:22:34.744Z,4.80
2019-01-03T01:25:27.141Z,5.20
2019-01-03T01:28:28.920Z,5.03
2019-01-03T01:31:29.036Z,4.67
2019-01-03T01:34:31.993Z,4.90
2019-01-03T01:37:39.345Z,5.07
2019-01-03T01:40:32.192Z,4.87
2019-01-03T01:43:39.844Z,4.63
2019-01-03T01:46:36.239Z,4.80
2019-01-03T01:49:43.797Z,4.97
2019-01-03T01:52:40.736Z,5.40
2019-01-03T01:55:28.620Z,5.27
2019-01-03T01:58:28.909Z,5.43
2019-01-03T02:01:36.407Z,4.53
2019-01-03T02:04:36.475Z,5.43
2019-01-03T02:07:39.331Z,4.97
2019-01-03T02:10:39.376Z,4.93
2019-01-03T02:13:46.886Z,5.60
2019-01-03T02:16:47.643Z,4.93
2019-01-03T02:19:55.038Z,5.13
2019-01-03T02:22:58.504Z,5.33
2019-01-03T02:26:04.969Z,5.27
2019-01-03T02:29:07.138Z,4.97
2019-01-03T02:32:15.051Z,4.60
2019-01-03T02:35:15.364Z,4.77
2019-01-03T02:38:24.638Z,4.57
2019-01-03T02:41:24.832Z,5.00
2019-01-03T02:44:32.354Z,5.30
2019-01-03T02:47:32.975Z,5.40
2019-01-03T02:50:32.701Z,5.47
2019-01-03T02:53:34.413Z,4.80
2019-01-03T02:56:41.751Z,5.47
2019-01-03T02:59:42.637Z,5.03
2019-01-03T03:02:50.207Z,4.75
2019-01-03T03:05:54.178Z,4.80
2019-01-03T03:08:51.732Z,4.73
2019-01-03T03:11:54.385Z,5.57
2019-01-03T03:15:01.831Z,5.17
2019-01-03T03:18:01.885Z,4.97
2019-01-03T03:21:09.365Z,5.20
2019-01-03T03:24:13.159Z,4.90
2019-01-03T03:27:15.391Z,5.45
2019-01-03T03:30:16.403Z,5.22
2019-01-03T03:33:16.696Z,5.78
2019-01-03T03:36:24.168Z,5.50
2019-01-03T03:39:25.209Z,5.60
2019-01-03T03:42:13.680Z,5.17
2019-01-03T03:45:14.144Z,5.27
2019-01-03T03:48:21.592Z,5.10
2019-01-03T03:51:22.646Z,4.80
2019-01-03T03:54:22.774Z,4.80
2019-01-03T03:57:30.368Z,5.07
2019-01-03T04:00:30.957Z,4.42
2019-01-03T04:03:38.690Z,4.10
2019-01-03T04:06:39.293Z,4.87
2019-01-03T04:09:36.503Z,4.43
2019-01-03T04:12:36.603Z,4.93
2019-01-03T04:15:44.246Z,4.10
2019-01-03T04:18:44.860Z,4.03
2019-01-03T04:21:52.650Z,4.33
2019-01-03T04:24:53.106Z,4.33
2019-01-03T04:27:53.279Z,4.37
2019-01-03T04:30:54.172Z,4.78
2019-01-03T04:33:54.566Z,4.40
2019-01-03T04:37:02.105Z,3.73
2019-01-03T04:39:57.062Z,4.67
2019-01-03T04:43:06.233Z,5.10
2019-01-03T04:46:06.792Z,4.10
2019-01-03T04:49:14.979Z,4.13
2019-01-03T04:52:21.105Z,4.33
2019-01-03T04:55:28.646Z,4.77
2019-01-03T04:58:29.040Z,4.47
2019-01-03T05:01:51.710Z,4.37
2019-01-03T05:04:59.253Z,3.63
2019-01-03T05:08:02.231Z,3.50
2019-01-03T05:11:09.601Z,3.92
2019-01-03T05:14:09.511Z,4.40
2019-01-03T05:17:16.974Z,4.17
2019-01-03T05:20:13.749Z,4.60
2019-01-03T05:23:21.125Z,4.07
2019-01-03T05:26:24.669Z,3.80
2019-01-03T05:29:32.257Z,4.20
2019-01-03T05:32:32.182Z,3.77
2019-01-03T05:35:39.646Z,3.70
2019-01-03T05:38:51.160Z,3.53
2019-01-03T05:41:51.732Z,4.27
2019-01-03T05:45:00.961Z,3.63
2019-01-03T05:48:01.553Z,4.23
2019-01-03T05:51:09.044Z,4.33
2019-01-03T05:54:09.855Z,4.50
2019-01-03T05:57:17.436Z,5.57
2019-01-03T06:00:18.025Z,4.50
2019-01-03T06:03:25.372Z,4.93
2019-01-03T06:06:26.246Z,4.73
2019-01-03T06:09:32.029Z,5.23
2019-01-03T06:12:39.519Z,5.47
2019-01-03T06:15:39.567Z,4.60
2019-01-03T06:18:48.814Z,4.10
2019-01-03T06:21:48.952Z,4.93
2019-01-03T06:24:58.088Z,4.10
2019-01-03T06:27:57.781Z,3.90
2019-01-03T06:31:05.328Z,4.23
2019-01-03T06:34:11.512Z,3.37
2019-01-03T06:37:18.969Z,3.00
2019-01-03T06:40:19.741Z,3.47
2019-01-03T06:43:22.560Z,3.40
2019-01-03T06:46:20.992Z,2.93
2019-01-03T06:49:28.420Z,3.23
2019-01-03T06:52:28.384Z,4.07
2019-01-03T06:55:24.474Z,4.00
2019-01-03T06:58:27.593Z,3.57
2019-01-03T07:01:36.781Z,3.80
2019-01-03T07:04:36.888Z,3.67
2019-01-03T07:07:44.388Z,3.30
2019-01-03T07:10:45.199Z,3.60
2019-01-03T07:13:52.706Z,3.90
2019-01-03T07:20:01.951Z,4.23
2019-01-03T07:23:02.424Z,4.00
2019-01-03T07:26:09.959Z,3.30
2019-01-03T07:29:10.872Z,3.53
2019-01-03T07:32:18.377Z,3.23
2019-01-03T07:35:11.490Z,3.23
2019-01-03T07:37:59.683Z,3.23
2019-01-03T07:41:00.502Z,3.70
2019-01-03T07:43:48.528Z,3.87
2019-01-03T07:46:54.457Z,3.23
2019-01-03T07:50:02.114Z,3.73
2019-01-03T07:53:02.212Z,4.23
2019-01-03T07:56:09.566Z,3.50
2019-01-03T07:59:09.712Z,3.47
2019-01-03T08:02:17.306Z,3.67
2019-01-03T08:05:18.397Z,4.37
2019-01-03T08:08:25.950Z,4.30
2019-01-03T08:11:26.502Z,4.40
2019-01-03T08:14:34.031Z,5.07
2019-01-03T08:17:37.647Z,4.60
2019-01-03T08:20:45.110Z,4.57
2019-01-03T08:23:48.837Z,4.60
2019-01-03T08:26:56.290Z,3.90
2019-01-03T08:29:56.447Z,4.03
2019-01-03T08:33:04.345Z,4.07
2019-01-03T08:36:04.762Z,4.10
2019-01-03T08:39:12.194Z,5.10
2019-01-03T08:42:13.079Z,4.70
2019-01-03T08:45:20.527Z,4.93
2019-01-03T08:48:21.694Z,4.10
2019-01-03T08:51:29.073Z,4.07
2019-01-03T08:54:29.332Z,4.60
2019-01-03T08:57:36.796Z,3.57
2019-01-03T09:00:39.580Z,2.60
2019-01-03T09:03:46.629Z,2.40
2019-01-03T09:06:47.172Z,2.90
2019-01-03T09:09:54.683Z,2.63
2019-01-03T09:12:55.515Z,2.90
2019-01-03T09:16:03.255Z,1.97
2019-01-03T09:19:03.897Z,2.30
2019-01-03T09:22:11.395Z,2.07
2019-01-03T09:25:11.419Z,1.63
2019-01-03T09:28:11.529Z,2.10
2019-01-03T09:31:13.929Z,1.40
2019-01-03T09:34:21.464Z,1.80
2019-01-03T09:37:11.048Z,1.43
2019-01-03T09:40:20.126Z,1.43
2019-01-03T09:43:25.918Z,2.00
2019-01-03T09:46:13.770Z,1.70
2019-01-03T09:48:56.318Z,1.50
2019-01-03T09:51:44.278Z,1.70
2019-01-03T09:54:35.592Z,1.50
2019-01-03T09:57:16.657Z,1.47
2019-01-03T09:59:58.909Z,1.50
2019-01-03T10:02:46.780Z,1.60
2019-01-03T10:05:36.611Z,1.73
2019-01-03T10:08:19.653Z,1.20
2019-01-03T10:11:07.346Z,1.10
2019-01-03T10:13:48.618Z,1.70
2019-01-03T10:16:36.772Z,1.70
2019-01-03T10:19:18.201Z,1.03
2019-01-03T10:22:06.555Z,1.30
2019-01-03T10:24:47.223Z,1.40
2019-01-03T10:27:28.012Z,1.13
2019-01-03T10:30:16.003Z,1.40
2019-01-03T10:32:57.176Z,1.83
2019-01-03T10:35:45.222Z,1.40
2019-01-03T10:38:13.779Z,2.10
2019-01-03T10:41:01.941Z,2.00
2019-01-03T10:43:43.143Z,1.67
2019-01-03T10:46:31.375Z,1.40
2019-01-03T10:49:11.986Z,1.50
2019-01-03T10:52:00.084Z,1.63
2019-01-03T10:54:41.023Z,2.03
2019-01-03T10:57:29.057Z,1.70
2019-01-03T11:00:10.556Z,1.43
2019-01-03T11:02:58.587Z,1.50
2019-01-03T11:05:39.597Z,1.47
2019-01-03T11:08:27.532Z,1.90
2019-01-03T11:11:10.602Z,1.73
2019-01-03T11:13:39.223Z,1.30
2019-01-03T11:16:19.895Z,1.57
2019-01-03T11:19:07.737Z,1.33
2019-01-03T11:21:49.062Z,1.33
2019-01-03T11:24:37.042Z,1.37
2019-01-03T11:27:18.196Z,1.70
2019-01-03T11:30:19.392Z,1.33
2019-01-03T11:33:07.294Z,1.40
2019-01-03T11:35:48.422Z,1.37
2019-01-03T11:38:36.296Z,1.20
2019-01-03T11:41:04.909Z,1.37
2019-01-03T11:43:52.949Z,1.07
2019-01-03T11:46:33.498Z,1.33
2019-01-03T11:49:21.499Z,2.07
2019-01-03T11:52:02.707Z,0.90
2019-01-03T11:54:50.480Z,1.10
2019-01-03T11:57:32.269Z,1.00
2019-01-03T12:00:20.119Z,0.90
2019-01-03T12:03:02.320Z,0.80
2019-01-03T12:05:50.567Z,1.40
2019-01-03T12:08:31.634Z,1.00
2019-01-03T12:11:19.696Z,0.67
2019-01-03T12:14:00.488Z,1.20
2019-01-03T12:16:48.970Z,1.17
2019-01-03T12:19:31.664Z,0.80
2019-01-03T12:22:19.863Z,1.37
2019-01-03T12:25:00.533Z,1.20
2019-01-03T12:27:41.696Z,2.43
2019-01-03T12:30:30.278Z,0.97
2019-01-03T12:33:10.628Z,0.83
2019-01-03T12:35:58.493Z,1.10
2019-01-03T12:38:39.853Z,1.07
2019-01-03T12:41:27.859Z,0.67
2019-01-03T12:44:08.954Z,0.83
2019-01-03T12:46:57.270Z,0.80
2019-01-03T12:49:39.892Z,0.87
2019-01-03T12:52:27.925Z,1.20
2019-01-03T12:55:08.924Z,0.97
2019-01-03T12:57:57.081Z,1.37
2019-01-03T13:00:37.745Z,0.80
2019-01-03T13:03:25.832Z,0.90
2019-01-03T13:06:06.891Z,0.70
2019-01-03T13:08:54.868Z,1.20
2019-01-03T13:11:35.593Z,1.27
2019-01-03T13:14:23.605Z,1.00
2019-01-03T13:17:04.480Z,0.83
2019-01-03T13:19:52.458Z,0.83
2019-01-03T13:22:33.525Z,1.10
2019-01-03T13:25:21.443Z,1.33
2019-01-03T13:28:02.725Z,1.27
2019-01-03T13:30:50.713Z,1.13
2019-01-03T13:33:33.879Z,1.67
2019-01-03T13:36:25.129Z,2.37
2019-01-03T13:39:06.899Z,1.00
2019-01-03T13:41:55.407Z,0.90
2019-01-03T13:44:36.123Z,0.83
2019-01-03T13:47:25.517Z,1.00
2019-01-03T13:50:07.249Z,0.67
2019-01-03T13:52:55.339Z,1.30
2019-01-03T13:55:24.501Z,1.07
2019-01-03T13:58:12.666Z,1.00
2019-01-03T14:00:53.351Z,1.37
2019-01-03T14:03:41.677Z,2.10
2019-01-03T14:06:23.243Z,1.07
2019-01-03T14:09:11.717Z,1.20
2019-01-03T14:11:41.484Z,1.10
2019-01-03T14:14:29.527Z,0.80
2019-01-03T14:17:10.616Z,0.90
2019-01-03T14:19:40.582Z,0.90
2019-01-03T14:22:24.210Z,0.93
2019-01-03T14:25:12.645Z,0.83
2019-01-03T14:27:53.812Z,0.70
2019-01-03T14:30:42.763Z,0.90
2019-01-03T14:33:23.985Z,0.80
2019-01-03T14:35:52.761Z,1.30
2019-01-03T14:38:34.108Z,0.70
2019-01-03T14:41:22.671Z,1.00
2019-01-03T14:44:04.284Z,0.70
2019-01-03T14:46:52.264Z,7.70
2019-01-03T14:49:33.722Z,13.50
2019-01-03T14:52:21.720Z,11.77
2019-01-03T14:55:03.407Z,4.67
2019-01-03T14:57:51.294Z,2.20
2019-01-03T15:00:32.637Z,1.40
2019-01-03T15:03:01.372Z,0.90
2019-01-03T15:05:42.547Z,0.87
2019-01-03T15:08:30.528Z,2.23
2019-01-03T15:11:13.050Z,3.53
2019-01-03T15:13:41.655Z,4.03
2019-01-03T15:16:22.206Z,3.40
2019-01-03T15:19:10.057Z,3.13
2019-01-03T15:21:51.402Z,2.97
2019-01-03T15:24:39.424Z,2.63
2019-01-03T15:27:22.755Z,2.47
2019-01-03T15:30:11.437Z,1.97
2019-01-03T15:32:53.195Z,1.90
2019-01-03T15:35:41.263Z,2.37
2019-01-03T15:38:24.014Z,2.27
2019-01-03T15:41:11.933Z,3.40
2019-01-03T15:43:53.049Z,1.83
2019-01-03T15:46:41.034Z,1.80
2019-01-03T15:49:21.693Z,2.47
2019-01-03T15:52:10.182Z,1.80
2019-01-03T15:54:50.988Z,1.80
2019-01-03T15:57:38.962Z,1.20
2019-01-03T16:00:20.172Z,0.80
2019-01-03T16:03:09.391Z,1.00
2019-01-03T16:05:50.367Z,1.10
2019-01-03T16:08:38.258Z,1.50
2019-01-03T16:11:19.368Z,1.40
2019-01-03T16:14:07.470Z,1.73
2019-01-03T16:16:48.721Z,1.50
2019-01-03T16:19:36.717Z,1.73
2019-01-03T16:22:17.862Z,2.57
2019-01-03T16:25:06.226Z,4.00
2019-01-03T16:27:47.033Z,4.10
2019-01-03T16:30:35.349Z,2.20
2019-01-03T16:33:15.899Z,2.63
2019-01-03T16:36:03.841Z,2.20
2019-01-03T16:38:45.014Z,2.00
2019-01-03T16:41:34.760Z,2.40
2019-01-03T16:44:16.665Z,2.10
2019-01-03T16:46:59.175Z,2.47
2019-01-03T16:49:50.019Z,2.13
2019-01-03T16:52:33.463Z,2.57
2019-01-03T16:55:14.573Z,2.10
2019-01-03T16:57:55.435Z,2.23
2019-01-03T17:00:43.510Z,2.20
2019-01-03T17:03:24.834Z,2.93
2019-01-03T17:06:12.710Z,2.77
2019-01-03T17:08:53.802Z,2.43
2019-01-03T17:11:41.568Z,2.80
2019-01-03T17:14:22.851Z,2.40
2019-01-03T17:17:11.000Z,2.37
2019-01-03T17:19:51.927Z,2.50
2019-01-03T17:22:39.872Z,2.63
2019-01-03T17:25:20.825Z,2.90
2019-01-03T17:28:02.918Z,3.80
2019-01-03T17:30:51.708Z,4.97
2019-01-03T17:33:34.433Z,4.87
2019-01-03T17:36:23.470Z,5.13
2019-01-03T17:39:07.284Z,5.00
2019-01-03T17:41:56.132Z,5.93
2019-01-03T17:44:39.325Z,5.53
2019-01-03T17:47:28.408Z,5.13
2019-01-03T17:50:09.610Z,5.93
2019-01-03T17:52:58.377Z,6.85
2019-01-03T17:55:28.314Z,6.57
2019-01-03T17:58:16.222Z,7.03
2019-01-03T18:00:56.847Z,6.50
2019-01-03T18:03:44.849Z,6.13
2019-01-03T18:06:13.564Z,6.37
2019-01-03T18:09:01.687Z,6.73
2019-01-03T18:11:43.223Z,8.27
2019-01-03T18:14:11.867Z,8.33
2019-01-03T18:16:52.888Z,8.13
2019-01-03T18:19:40.839Z,7.67
2019-01-03T18:22:21.849Z,6.70
2019-01-03T18:25:10.632Z,6.40
2019-01-03T18:27:51.874Z,7.17
2019-01-03T18:30:40.180Z,7.60
2019-01-03T18:33:20.687Z,7.17
2019-01-03T18:36:08.972Z,6.63
2019-01-03T18:38:49.945Z,6.40
2019-01-03T18:41:38.017Z,5.80
2019-01-03T18:44:19.238Z,4.90
2019-01-03T18:47:07.150Z,5.20
2019-01-03T18:49:47.968Z,4.57
2019-01-03T18:52:16.878Z,3.23
2019-01-03T18:54:57.847Z,3.53
2019-01-03T18:57:45.959Z,3.20
2019-01-03T19:00:27.069Z,3.33
2019-01-03T19:03:15.083Z,3.43
2019-01-03T19:05:56.169Z,3.30
2019-01-03T19:08:44.620Z,3.63
2019-01-03T19:11:13.231Z,3.17
2019-01-03T19:14:01.293Z,3.93
2019-01-03T19:16:29.855Z,4.13
2019-01-03T19:19:17.716Z,3.70
2019-01-03T19:21:58.971Z,3.23
2019-01-03T19:24:46.903Z,5.15
2019-01-03T19:27:30.117Z,3.83
2019-01-03T19:30:11.264Z,3.80
2019-01-03T19:32:52.466Z,4.20
2019-01-03T19:35:40.500Z,3.67
2019-01-03T19:38:21.611Z,4.37
2019-01-03T19:41:09.956Z,4.23
2019-01-03T19:43:51.175Z,3.63
2019-01-03T19:46:40.593Z,3.77
2019-01-03T19:49:20.594Z,3.87
2019-01-03T19:52:09.031Z,3.67
2019-01-03T19:54:49.628Z,3.67
2019-01-03T19:57:37.607Z,3.90
2019-01-03T20:00:18.502Z,3.40
2019-01-03T20:02:48.731Z,3.97
2019-01-03T20:05:29.673Z,3.70
2019-01-03T20:08:17.808Z,3.80
2019-01-03T20:10:58.785Z,3.57
2019-01-03T20:13:47.100Z,3.73
2019-01-03T20:16:27.732Z,3.33
2019-01-03T20:19:16.029Z,3.40
2019-01-03T20:21:59.888Z,3.47
2019-01-03T20:24:48.178Z,5.63
2019-01-03T20:27:29.560Z,8.03
2019-01-03T20:30:10.566Z,5.80
2019-01-03T20:32:51.378Z,5.20
2019-01-03T20:35:32.571Z,4.70
2019-01-03T20:38:01.231Z,5.30
2019-01-03T20:40:49.229Z,4.93
2019-01-03T20:43:30.083Z,6.20
2019-01-03T20:46:18.053Z,6.37
2019-01-03T20:48:59.478Z,6.40
2019-01-03T20:51:48.045Z,5.50
2019-01-03T20:54:29.333Z,4.83
2019-01-03T20:57:17.191Z,4.67
2019-01-03T20:59:58.645Z,4.53
2019-01-03T21:02:47.761Z,3.90
2019-01-03T21:05:28.952Z,3.45
2019-01-03T21:08:16.812Z,4.03
2019-01-03T21:10:59.397Z,3.57
2019-01-03T21:13:47.490Z,3.50
2019-01-03T21:16:29.280Z,3.20
2019-01-03T21:19:18.325Z,3.27
2019-01-03T21:21:59.185Z,3.73
2019-01-03T21:24:29.208Z,4.07
2019-01-03T21:27:10.792Z,3.47
2019-01-03T21:29:51.833Z,3.20
2019-01-03T21:32:32.906Z,4.00
2019-01-03T21:35:21.524Z,3.67
2019-01-03T21:37:50.490Z,3.87
2019-01-03T21:40:38.338Z,4.33
2019-01-03T21:43:18.997Z,4.30
2019-01-03T21:46:07.074Z,4.40
2019-01-03T21:48:53.084Z,4.50
2019-01-03T21:51:38.182Z,4.30
2019-01-03T21:54:06.747Z,5.13
2019-01-03T21:56:54.734Z,5.07
2019-01-03T21:59:36.053Z,4.30
2019-01-03T22:02:24.038Z,3.93
2019-01-03T22:05:05.168Z,4.13
2019-01-03T22:07:53.119Z,4.20
2019-01-03T22:10:34.761Z,4.00
2019-01-03T22:13:22.948Z,4.30
2019-01-03T22:16:04.528Z,4.70
2019-01-03T22:18:53.099Z,4.27
2019-01-03T22:21:34.305Z,4.67
2019-01-03T22:24:22.071Z,4.40
2019-01-03T22:27:02.852Z,4.00
2019-01-03T22:29:43.886Z,4.47
2019-01-03T22:32:24.756Z,3.53
2019-01-03T22:35:12.915Z,4.57
2019-01-03T22:37:55.650Z,4.10
2019-01-03T22:40:43.642Z,4.10
2019-01-03T22:43:24.635Z,3.90
2019-01-03T22:46:12.550Z,3.40
2019-01-03T22:48:51.558Z,3.53
2019-01-03T22:51:39.532Z,3.77
2019-01-03T22:54:20.763Z,4.10
2019-01-03T22:57:08.727Z,4.47
2019-01-03T22:59:49.897Z,3.97
2019-01-03T23:02:37.864Z,4.27
2019-01-03T23:05:19.500Z,3.87
2019-01-03T23:08:07.697Z,4.00
2019-01-03T23:10:50.202Z,3.73
2019-01-03T23:13:38.239Z,4.10
2019-01-03T23:16:21.156Z,4.10
2019-01-03T23:19:09.003Z,3.67
2019-01-03T23:21:50.289Z,4.20
2019-01-03T23:24:38.355Z,3.80
2019-01-03T23:27:19.556Z,3.80
2019-01-03T23:30:00.692Z,3.63
2019-01-03T23:32:41.694Z,3.97
2019-01-03T23:35:29.617Z,3.90
2019-01-03T23:38:10.800Z,3.90
2019-01-03T23:40:58.695Z,3.93
2019-01-03T23:43:40.202Z,4.43
2019-01-03T23:46:28.595Z,3.80
2019-01-03T23:49:09.669Z,4.97
2019-01-03T23:51:57.590Z,3.83
2019-01-03T23:54:40.298Z,4.53
2019-01-03T23:57:29.101Z,4.87
